createdAt,value
2023-03-14T13:04:40.067Z,26.41
2023-03-14T15:32:06.447Z,20.98
2023-03-14T15:36:06.382Z,20.59
2023-03-14T15:40:06.056Z,20.53
2023-03-14T15:44:06.434Z,20.46
2023-03-14T15:48:06.356Z,21.02
2023-03-14T15:52:06.357Z,20.56
2023-03-14T15:56:06.336Z,19.80
2023-03-14T16:00:05.938Z,19.51
2023-03-14T16:04:05.840Z,19.35
2023-03-14T16:08:05.888Z,19.36
2023-03-14T16:12:06.376Z,19.33
2023-03-14T16:16:06.159Z,19.29
2023-03-14T16:20:06.413Z,19.18
2023-03-14T16:24:06.910Z,19.05
2023-03-14T16:28:11.156Z,19.07
2023-03-14T16:32:06.684Z,19.11
2023-03-14T16:36:06.641Z,19.20
2023-03-14T16:44:07.527Z,20.02
2023-03-14T16:48:06.868Z,20.27
2023-03-14T16:52:06.974Z,20.45
2023-03-14T16:56:06.861Z,20.58
2023-03-14T17:00:09.466Z,20.68
2023-03-14T17:04:06.978Z,20.77
2023-03-14T17:08:07.420Z,20.82
2023-03-14T17:12:06.883Z,20.88
2023-03-14T17:16:06.938Z,20.92
2023-03-14T17:20:06.882Z,20.96
2023-03-14T17:24:06.873Z,20.99
2023-03-14T17:28:06.884Z,21.02
2023-03-14T17:32:06.691Z,21.06
2023-03-14T17:36:06.953Z,21.08
2023-03-14T17:40:06.925Z,21.12
2023-03-14T17:44:06.889Z,21.13
2023-03-14T17:48:06.886Z,21.15
2023-03-14T17:52:06.488Z,21.18
2023-03-14T17:56:06.906Z,21.20
2023-03-14T18:00:06.898Z,21.22
2023-03-14T18:04:06.980Z,21.24
2023-03-14T18:08:06.918Z,21.26
2023-03-14T18:12:08.582Z,21.27
2023-03-14T18:16:07.469Z,21.28
2023-03-14T18:20:07.408Z,21.29
2023-03-14T18:24:07.908Z,21.31
2023-03-14T18:28:07.619Z,21.31
2023-03-14T18:32:07.900Z,21.32
2023-03-14T18:36:08.477Z,21.33
2023-03-14T18:40:08.409Z,21.34
2023-03-14T18:44:08.325Z,21.35
2023-03-14T18:48:08.487Z,21.37
2023-03-14T18:52:08.926Z,21.37
2023-03-14T18:56:08.929Z,21.37
2023-03-14T19:00:09.073Z,21.39
2023-03-14T19:04:10.959Z,21.39
2023-03-14T19:08:09.398Z,21.40
2023-03-14T19:12:09.928Z,21.41
2023-03-14T19:16:09.980Z,21.41
2023-03-14T19:20:10.406Z,21.42
2023-03-14T19:24:10.405Z,21.42
2023-03-14T19:28:10.405Z,21.44
2023-03-14T19:32:10.815Z,21.44
2023-03-14T19:36:10.973Z,21.45
2023-03-14T19:40:11.396Z,21.46
2023-03-14T19:44:11.300Z,21.46
2023-03-14T19:48:11.906Z,21.46
2023-03-14T19:52:11.686Z,21.47
2023-03-14T19:56:11.961Z,21.47
2023-03-14T20:00:12.421Z,21.47
2023-03-14T20:04:12.331Z,21.48
2023-03-14T20:08:12.932Z,21.48
2023-03-14T20:12:12.909Z,21.48
2023-03-14T20:16:13.488Z,21.49
2023-03-14T20:20:13.440Z,21.50
2023-03-14T20:24:13.141Z,21.50
2023-03-14T20:28:13.073Z,21.50
2023-03-14T20:32:13.451Z,21.50
2023-03-14T20:36:13.514Z,21.51
2023-03-14T20:40:13.448Z,21.51
2023-03-14T20:44:12.971Z,21.50
2023-03-14T20:48:12.986Z,21.51
2023-03-14T20:52:12.884Z,21.51
2023-03-14T20:56:12.956Z,21.51
2023-03-14T21:00:12.790Z,21.51
2023-03-14T21:04:13.047Z,21.52
2023-03-14T21:08:13.077Z,21.52
2023-03-14T21:12:13.460Z,21.53
2023-03-14T21:16:14.021Z,21.53
2023-03-14T21:20:13.672Z,21.53
2023-03-14T21:24:13.851Z,21.53
2023-03-14T21:28:14.009Z,21.53
2023-03-14T21:32:14.488Z,21.54
2023-03-14T21:36:14.535Z,21.54
2023-03-14T21:40:14.453Z,21.54
2023-03-14T21:44:14.609Z,21.55
2023-03-14T21:48:14.991Z,21.54
2023-03-14T21:52:15.493Z,21.55
2023-03-14T21:56:15.166Z,21.55
2023-03-14T22:00:15.308Z,21.55
2023-03-14T22:04:15.994Z,21.56
2023-03-14T22:08:15.646Z,21.56
2023-03-14T22:12:15.976Z,21.55
2023-03-14T22:16:15.985Z,21.55
2023-03-14T22:20:16.110Z,21.55
2023-03-14T22:24:16.468Z,21.56
2023-03-14T22:28:16.396Z,21.56
2023-03-14T22:32:16.973Z,21.55
2023-03-14T22:36:16.730Z,21.56
2023-03-14T22:40:16.991Z,21.56
2023-03-14T22:44:17.483Z,21.56
2023-03-14T22:48:17.494Z,21.56
2023-03-14T22:52:17.316Z,21.56
2023-03-14T22:56:17.441Z,21.56
2023-03-14T23:00:17.972Z,21.56
2023-03-14T23:04:17.985Z,21.56
2023-03-14T23:08:17.846Z,21.57
2023-03-14T23:12:18.061Z,21.57
2023-03-14T23:16:19.872Z,21.57
2023-03-14T23:20:18.473Z,21.56
2023-03-14T23:24:18.163Z,21.57
2023-03-14T23:28:18.147Z,21.57
2023-03-14T23:32:18.076Z,21.57
2023-03-14T23:36:18.023Z,21.57
2023-03-14T23:40:18.580Z,21.57
2023-03-14T23:44:17.961Z,21.58
2023-03-14T23:48:18.021Z,21.58
2023-03-14T23:52:17.910Z,21.57
2023-03-14T23:56:17.869Z,21.58
